createdAt,value
2023-05-21T00:00:39.626Z,1.83
2023-05-21T00:03:06.068Z,2.30
2023-05-21T00:05:34.740Z,2.60
2023-05-21T00:08:05.577Z,2.20
2023-05-21T00:10:34.949Z,1.80
2023-05-21T00:13:01.234Z,2.50
2023-05-21T00:15:27.567Z,2.67
2023-05-21T00:17:53.970Z,2.60
2023-05-21T00:20:21.674Z,2.40
2023-05-21T00:22:50.144Z,2.30
2023-05-21T00:25:16.446Z,2.63
2023-05-21T00:27:44.454Z,2.53
2023-05-21T00:30:10.797Z,2.63
2023-05-21T00:32:40.109Z,2.50
2023-05-21T00:35:06.785Z,2.92
2023-05-21T00:37:33.101Z,2.00
2023-05-21T00:39:59.790Z,2.78
2023-05-21T00:42:26.104Z,3.03
2023-05-21T00:44:53.807Z,2.85
2023-05-21T00:47:20.186Z,2.58
2023-05-21T00:49:49.505Z,2.47
2023-05-21T00:52:15.747Z,2.63
2023-05-21T00:54:46.732Z,2.70
2023-05-21T00:57:13.796Z,2.75
2023-05-21T00:59:40.525Z,2.38
2023-05-21T01:02:08.040Z,3.00
2023-05-21T01:04:34.296Z,3.70
2023-05-21T01:07:00.554Z,2.88
2023-05-21T01:09:27.014Z,2.50
2023-05-21T01:11:53.695Z,3.17
2023-05-21T01:14:21.885Z,3.20
2023-05-21T01:16:49.115Z,2.65
2023-05-21T01:19:19.187Z,2.78
2023-05-21T01:21:46.387Z,3.38
2023-05-21T01:24:15.141Z,2.97
2023-05-21T01:26:41.493Z,2.45
2023-05-21T01:29:08.368Z,2.53
2023-05-21T01:31:52.393Z,3.45
2023-05-21T01:34:23.960Z,3.10
2023-05-21T01:36:55.084Z,3.45
2023-05-21T01:39:33.626Z,2.80
2023-05-21T01:42:01.572Z,2.85
2023-05-21T01:44:28.100Z,3.00
2023-05-21T01:46:57.174Z,3.17
2023-05-21T01:49:23.757Z,3.30
2023-05-21T01:51:50.179Z,3.55
2023-05-21T01:54:18.905Z,2.67
2023-05-21T01:56:46.574Z,3.30
2023-05-21T01:59:12.834Z,3.40
2023-05-21T02:01:39.138Z,3.10
2023-05-21T02:04:05.808Z,2.80
2023-05-21T02:06:32.148Z,3.55
2023-05-21T02:08:58.472Z,2.80
2023-05-21T02:11:24.739Z,2.58
2023-05-21T02:13:52.155Z,3.10
2023-05-21T02:16:21.193Z,3.95
2023-05-21T02:18:47.604Z,3.03
2023-05-21T02:21:14.159Z,2.72
2023-05-21T02:23:40.454Z,3.70
2023-05-21T02:26:06.744Z,2.47
2023-05-21T02:28:35.962Z,3.50
2023-05-21T02:31:02.250Z,3.50
2023-05-21T02:33:28.525Z,2.80
2023-05-21T02:35:57.267Z,3.20
2023-05-21T02:38:27.821Z,3.20
2023-05-21T02:40:56.011Z,2.78
2023-05-21T02:43:22.298Z,3.78
2023-05-21T02:45:48.595Z,3.47
2023-05-21T02:48:17.262Z,3.75
2023-05-21T02:50:43.570Z,3.97
2023-05-21T02:53:09.891Z,3.40
2023-05-21T02:55:36.368Z,3.50
2023-05-21T02:58:05.786Z,3.00
2023-05-21T03:00:32.358Z,3.83
2023-05-21T03:02:58.903Z,3.25
2023-05-21T03:05:31.400Z,3.55
2023-05-21T03:07:57.633Z,4.20
2023-05-21T03:10:25.338Z,3.30
2023-05-21T03:12:52.979Z,3.15
2023-05-21T03:15:19.294Z,3.17
2023-05-21T03:17:48.066Z,3.50
2023-05-21T03:20:19.131Z,3.30
2023-05-21T03:22:45.831Z,3.60
2023-05-21T03:25:12.144Z,2.95
2023-05-21T03:27:38.909Z,3.85
2023-05-21T03:30:15.529Z,4.00
2023-05-21T03:32:41.849Z,3.15
2023-05-21T03:35:09.419Z,4.13
2023-05-21T03:37:35.702Z,4.22
2023-05-21T03:40:02.032Z,4.03
2023-05-21T03:42:31.426Z,4.43
2023-05-21T03:45:00.189Z,4.30
2023-05-21T03:47:26.470Z,3.90
2023-05-21T03:49:54.656Z,3.10
2023-05-21T03:52:21.077Z,3.65
2023-05-21T03:54:47.356Z,3.35
2023-05-21T03:57:13.639Z,3.25
2023-05-21T03:59:40.149Z,3.90
2023-05-21T04:02:06.456Z,3.40
2023-05-21T04:04:37.017Z,3.08
2023-05-21T04:07:03.503Z,3.17
2023-05-21T04:09:30.395Z,3.22
2023-05-21T04:11:58.779Z,3.45
2023-05-21T04:14:26.171Z,3.85
2023-05-21T04:16:52.692Z,3.42
2023-05-21T04:19:19.336Z,3.90
2023-05-21T04:21:52.042Z,3.63
2023-05-21T04:24:22.323Z,4.03
2023-05-21T04:26:48.593Z,3.78
2023-05-21T04:29:14.950Z,3.03
2023-05-21T04:31:44.217Z,3.58
2023-05-21T04:34:10.665Z,3.72
2023-05-21T04:36:37.198Z,2.85
2023-05-21T04:39:06.115Z,3.35
2023-05-21T04:41:34.685Z,3.25
2023-05-21T04:44:01.082Z,3.90
2023-05-21T04:46:29.934Z,3.75
2023-05-21T04:48:58.479Z,3.60
2023-05-21T04:51:24.916Z,3.17
2023-05-21T04:53:51.313Z,4.32
2023-05-21T04:56:17.753Z,3.97
2023-05-21T04:58:56.762Z,3.78
2023-05-21T05:01:23.474Z,3.83
2023-05-21T05:03:49.891Z,3.80
2023-05-21T05:06:18.771Z,3.60
2023-05-21T05:08:45.033Z,3.97
2023-05-21T05:11:17.272Z,3.88
2023-05-21T05:13:45.649Z,3.83
2023-05-21T05:16:12.081Z,3.70
2023-05-21T05:18:45.331Z,3.97
2023-05-21T05:21:15.820Z,3.13
2023-05-21T05:23:43.247Z,4.53
2023-05-21T05:26:15.749Z,4.32
2023-05-21T05:28:43.970Z,4.13
2023-05-21T05:31:11.782Z,3.85
2023-05-21T05:33:38.126Z,3.97
2023-05-21T05:36:05.617Z,3.60
2023-05-21T05:38:34.630Z,4.35
2023-05-21T05:41:06.976Z,4.20
2023-05-21T05:43:34.314Z,3.75
2023-05-21T05:46:00.627Z,4.00
2023-05-21T05:48:26.974Z,3.40
2023-05-21T05:50:54.366Z,3.40
2023-05-21T05:53:22.082Z,3.67
2023-05-21T05:55:48.327Z,3.33
2023-05-21T05:58:17.191Z,3.20
2023-05-21T06:00:47.191Z,4.20
2023-05-21T06:03:27.107Z,4.07
2023-05-21T06:05:54.795Z,3.38
2023-05-21T06:08:21.103Z,4.25
2023-05-21T06:10:47.393Z,4.30
2023-05-21T06:13:13.796Z,3.65
2023-05-21T06:15:40.137Z,4.47
2023-05-21T06:18:06.615Z,3.95
2023-05-21T06:20:33.028Z,4.05
2023-05-21T06:22:59.308Z,4.18
2023-05-21T06:25:34.140Z,4.40
2023-05-21T06:28:00.501Z,4.32
2023-05-21T06:30:26.795Z,4.10
2023-05-21T06:32:56.412Z,4.38
2023-05-21T06:35:23.418Z,4.20
2023-05-21T06:38:00.153Z,3.78
2023-05-21T06:40:26.457Z,4.22
2023-05-21T06:42:52.760Z,4.20
2023-05-21T06:45:20.085Z,4.10
2023-05-21T06:47:47.604Z,4.47
2023-05-21T06:50:13.880Z,3.67
2023-05-21T06:52:40.188Z,3.55
2023-05-21T06:55:06.867Z,3.75
2023-05-21T06:57:37.402Z,5.18
2023-05-21T07:00:05.093Z,4.85
2023-05-21T07:02:31.482Z,3.65
2023-05-21T07:04:57.836Z,4.70
2023-05-21T07:07:25.313Z,4.35
2023-05-21T07:09:51.688Z,3.70
2023-05-21T07:12:18.011Z,4.45
2023-05-21T07:14:46.665Z,4.50
2023-05-21T07:17:12.948Z,3.72
2023-05-21T07:19:39.212Z,4.85
2023-05-21T07:22:05.500Z,3.45
2023-05-21T07:24:32.870Z,3.80
2023-05-21T07:26:59.088Z,4.47
2023-05-21T07:29:27.628Z,4.40
2023-05-21T07:31:53.926Z,3.83
2023-05-21T07:34:20.203Z,3.47
2023-05-21T07:36:46.494Z,3.83
2023-05-21T07:39:12.997Z,3.47
2023-05-21T07:41:41.576Z,4.55
2023-05-21T07:44:08.039Z,3.42
2023-05-21T07:46:34.311Z,3.90
2023-05-21T07:49:02.959Z,3.67
2023-05-21T07:51:31.591Z,3.90
2023-05-21T07:54:00.897Z,4.20
2023-05-21T07:56:27.177Z,4.10
2023-05-21T07:58:55.949Z,3.88
2023-05-21T08:01:22.226Z,3.97
2023-05-21T08:03:51.129Z,4.57
2023-05-21T08:06:17.721Z,4.00
2023-05-21T08:08:46.725Z,3.30
2023-05-21T08:11:13.038Z,3.78
2023-05-21T08:13:39.342Z,3.67
2023-05-21T08:16:05.740Z,3.70
2023-05-21T08:18:32.238Z,3.72
2023-05-21T08:21:02.783Z,3.60
2023-05-21T08:23:29.024Z,3.40
2023-05-21T08:25:58.958Z,3.70
2023-05-21T08:28:25.257Z,3.70
2023-05-21T08:30:51.485Z,4.20
2023-05-21T08:33:19.579Z,4.45
2023-05-21T08:35:47.285Z,3.72
2023-05-21T08:38:16.012Z,4.22
2023-05-21T08:40:42.491Z,4.32
2023-05-21T08:43:08.829Z,3.97
2023-05-21T08:45:35.503Z,4.03
2023-05-21T08:48:02.090Z,3.75
2023-05-21T08:50:29.213Z,3.80
2023-05-21T08:52:55.529Z,3.90
2023-05-21T08:55:21.976Z,4.40
2023-05-21T08:57:48.587Z,4.40
2023-05-21T09:00:15.080Z,3.75
2023-05-21T09:02:45.050Z,3.75
2023-05-21T09:05:14.714Z,4.57
2023-05-21T09:08:19.417Z,3.72
2023-05-21T09:10:49.367Z,4.45
2023-05-21T09:13:18.689Z,3.72
2023-05-21T09:15:45.234Z,4.72
2023-05-21T09:18:11.665Z,4.22
2023-05-21T09:20:38.155Z,3.97
2023-05-21T09:23:04.947Z,3.95
2023-05-21T09:25:33.843Z,4.20
2023-05-21T09:28:01.390Z,4.03
2023-05-21T09:30:29.725Z,3.90
2023-05-21T09:33:00.249Z,4.22
2023-05-21T09:35:26.735Z,3.65
2023-05-21T09:37:53.644Z,4.35
2023-05-21T09:40:20.652Z,3.95
2023-05-21T09:42:48.187Z,4.05
2023-05-21T09:45:20.740Z,4.25
2023-05-21T09:47:48.832Z,4.15
2023-05-21T09:50:19.307Z,4.50
2023-05-21T09:52:45.802Z,4.03
2023-05-21T09:55:12.843Z,3.80
2023-05-21T09:57:44.934Z,4.57
2023-05-21T10:00:21.384Z,3.95
2023-05-21T10:02:48.852Z,4.40
2023-05-21T10:05:15.883Z,4.25
2023-05-21T10:07:44.629Z,3.92
2023-05-21T10:10:12.648Z,4.68
2023-05-21T10:12:39.717Z,4.22
2023-05-21T10:15:08.099Z,4.65
2023-05-21T10:17:34.565Z,4.05
2023-05-21T10:20:19.622Z,3.92
2023-05-21T10:22:48.875Z,4.43
2023-05-21T10:25:15.499Z,4.32
2023-05-21T10:27:41.828Z,4.20
2023-05-21T10:30:08.281Z,4.88
2023-05-21T10:32:42.287Z,4.38
2023-05-21T10:35:09.023Z,4.25
2023-05-21T10:37:40.617Z,3.80
2023-05-21T10:40:09.178Z,3.83
2023-05-21T10:42:35.598Z,4.25
2023-05-21T10:45:23.790Z,4.40
2023-05-21T10:47:58.698Z,3.83
2023-05-21T10:50:40.992Z,4.60
2023-05-21T10:53:21.922Z,4.05
2023-05-21T10:55:51.277Z,4.15
2023-05-21T10:58:29.973Z,4.50
2023-05-21T11:00:57.320Z,4.15
2023-05-21T11:03:24.935Z,3.63
2023-05-21T11:05:57.158Z,4.00
2023-05-21T11:08:23.456Z,4.13
2023-05-21T11:10:53.222Z,3.90
2023-05-21T11:13:19.529Z,3.45
2023-05-21T11:16:00.928Z,3.80
2023-05-21T11:18:37.283Z,4.43
2023-05-21T11:21:10.448Z,4.32
2023-05-21T11:24:02.862Z,4.22
2023-05-21T11:26:32.564Z,3.90
2023-05-21T11:29:08.252Z,4.55
2023-05-21T11:31:35.455Z,4.28
2023-05-21T11:34:11.116Z,4.25
2023-05-21T11:36:37.604Z,4.38
2023-05-21T11:39:17.075Z,5.20
2023-05-21T11:42:05.035Z,4.57
2023-05-21T11:44:40.922Z,4.32
2023-05-21T11:47:09.396Z,4.53
2023-05-21T11:49:40.233Z,4.60
2023-05-21T11:52:08.364Z,4.78
2023-05-21T11:54:41.822Z,4.80
2023-05-21T11:57:08.550Z,4.60
2023-05-21T11:59:43.810Z,5.07
2023-05-21T12:02:13.854Z,4.95
2023-05-21T12:05:07.728Z,5.65
2023-05-21T12:07:32.116Z,4.60
2023-05-21T12:10:03.309Z,4.72
2023-05-21T12:12:38.858Z,5.03
2023-05-21T12:15:17.625Z,5.13
2023-05-21T12:17:44.057Z,5.88
2023-05-21T12:20:14.940Z,4.43
2023-05-21T12:22:41.497Z,5.32
2023-05-21T12:25:10.633Z,4.47
2023-05-21T12:27:37.059Z,5.35
2023-05-21T12:30:03.582Z,5.45
2023-05-21T12:32:33.513Z,5.38
2023-05-21T12:34:59.947Z,5.55
2023-05-21T12:37:27.257Z,5.35
2023-05-21T12:39:54.303Z,5.93
2023-05-21T12:42:27.621Z,6.07
2023-05-21T12:44:54.071Z,5.35
2023-05-21T12:47:23.056Z,6.05
2023-05-21T12:49:49.437Z,5.43
2023-05-21T12:52:18.244Z,5.45
2023-05-21T12:54:49.694Z,5.40
2023-05-21T12:57:21.351Z,6.03
2023-05-21T12:59:59.234Z,6.40
2023-05-21T13:02:26.607Z,5.57
2023-05-21T13:04:58.725Z,5.82
2023-05-21T13:07:25.557Z,6.05
2023-05-21T13:09:53.635Z,7.18
2023-05-21T13:12:20.645Z,6.03
2023-05-21T13:14:46.940Z,6.35
2023-05-21T13:17:13.188Z,6.35
2023-05-21T13:19:39.471Z,5.95
2023-05-21T13:22:05.795Z,5.78
2023-05-21T13:24:32.061Z,5.90
2023-05-21T13:26:58.462Z,5.88
2023-05-21T13:29:24.834Z,5.78
2023-05-21T13:31:52.275Z,6.25
2023-05-21T13:34:18.505Z,5.05
2023-05-21T13:36:44.763Z,6.25
2023-05-21T13:39:11.029Z,5.60
2023-05-21T13:41:39.775Z,5.82
2023-05-21T13:44:09.181Z,5.93
2023-05-21T13:46:35.511Z,6.03
2023-05-21T13:49:01.809Z,6.70
2023-05-21T13:51:39.147Z,6.10
2023-05-21T13:54:05.966Z,6.65
2023-05-21T13:56:33.378Z,6.22
2023-05-21T13:59:03.042Z,5.35
2023-05-21T14:01:29.405Z,5.60
2023-05-21T14:03:55.750Z,5.97
2023-05-21T14:06:22.177Z,5.93
2023-05-21T14:08:48.516Z,5.75
2023-05-21T14:11:16.561Z,5.97
2023-05-21T14:13:45.777Z,5.65
2023-05-21T14:16:13.998Z,6.30
2023-05-21T14:18:40.282Z,6.85
2023-05-21T14:21:07.739Z,5.90
2023-05-21T14:23:34.014Z,6.13
2023-05-21T14:26:00.248Z,6.03
2023-05-21T14:28:26.796Z,5.47
2023-05-21T14:31:00.228Z,5.80
2023-05-21T14:33:26.522Z,5.70
2023-05-21T14:35:52.773Z,5.88
2023-05-21T14:38:19.059Z,5.55
2023-05-21T14:40:47.810Z,5.68
2023-05-21T14:43:16.951Z,6.10
2023-05-21T14:45:46.211Z,5.53
2023-05-21T14:48:12.658Z,6.43
2023-05-21T14:50:39.238Z,6.28
2023-05-21T14:53:09.059Z,5.10
2023-05-21T14:58:04.892Z,4.90
2023-05-21T15:00:34.212Z,3.65
2023-05-21T15:03:01.057Z,4.10
2023-05-21T15:05:27.958Z,3.85
2023-05-21T15:07:54.421Z,3.60
2023-05-21T15:10:20.708Z,3.70
2023-05-21T15:12:47.019Z,2.83
2023-05-21T15:15:16.417Z,4.50
2023-05-21T15:17:45.580Z,4.07
2023-05-21T15:20:13.953Z,3.78
2023-05-21T15:22:40.514Z,3.42
2023-05-21T15:25:07.033Z,4.90
2023-05-21T15:27:33.628Z,3.67
2023-05-21T15:30:00.525Z,3.35
2023-05-21T15:32:27.100Z,3.63
2023-05-21T15:34:53.821Z,3.35
2023-05-21T15:37:25.721Z,3.30
2023-05-21T15:39:54.986Z,3.97
2023-05-21T15:42:21.430Z,4.20
2023-05-21T15:44:48.169Z,3.58
2023-05-21T15:47:14.467Z,3.28
2023-05-21T15:49:44.936Z,3.10
2023-05-21T15:52:18.713Z,3.40
2023-05-21T15:54:47.540Z,3.25
2023-05-21T15:57:16.772Z,2.97
2023-05-21T15:59:43.055Z,3.63
2023-05-21T16:02:09.343Z,3.80
2023-05-21T16:04:36.550Z,3.67
2023-05-21T16:07:08.513Z,3.33
2023-05-21T16:09:39.046Z,3.65
2023-05-21T16:12:07.282Z,4.10
2023-05-21T16:14:34.948Z,3.58
2023-05-21T16:17:01.441Z,3.55
2023-05-21T16:19:27.947Z,3.25
2023-05-21T16:21:54.475Z,3.58
2023-05-21T16:24:26.761Z,3.78
2023-05-21T16:26:53.058Z,3.40
2023-05-21T16:29:19.332Z,3.45
2023-05-21T16:31:46.978Z,3.55
2023-05-21T16:34:13.238Z,3.88
2023-05-21T16:36:42.073Z,3.40
2023-05-21T16:39:12.629Z,3.35
2023-05-21T16:41:40.515Z,3.63
2023-05-21T16:44:06.968Z,3.78
2023-05-21T16:46:33.294Z,3.70
2023-05-21T16:49:02.028Z,3.55
2023-05-21T16:51:29.398Z,3.53
2023-05-21T16:53:55.816Z,3.67
2023-05-21T16:56:23.463Z,3.92
2023-05-21T16:58:49.779Z,3.33
2023-05-21T17:01:20.431Z,4.13
2023-05-21T17:03:46.814Z,3.75
2023-05-21T17:06:14.326Z,3.38
2023-05-21T17:08:40.814Z,4.25
2023-05-21T17:11:07.141Z,4.15
2023-05-21T17:13:33.702Z,4.47
2023-05-21T17:16:01.837Z,3.85
2023-05-21T17:18:28.393Z,3.63
2023-05-21T17:20:54.637Z,3.83
2023-05-21T17:23:21.371Z,3.95
2023-05-21T17:25:47.719Z,3.85
2023-05-21T17:28:15.170Z,5.20
2023-05-21T17:30:41.464Z,3.65
2023-05-21T17:33:11.361Z,3.95
2023-05-21T17:35:38.201Z,3.28
2023-05-21T17:38:04.943Z,4.40
2023-05-21T17:40:33.648Z,4.03
2023-05-21T17:43:02.988Z,4.40
2023-05-21T17:45:30.409Z,4.47
2023-05-21T17:47:59.667Z,4.57
2023-05-21T17:50:26.568Z,5.15
2023-05-21T17:52:55.052Z,5.60
2023-05-21T17:55:21.401Z,6.05
2023-05-21T17:57:47.675Z,4.82
2023-05-21T18:00:17.198Z,4.88
2023-05-21T18:02:43.608Z,5.22
2023-05-21T18:05:12.799Z,5.10
2023-05-21T18:07:39.630Z,5.03
2023-05-21T18:10:09.058Z,5.05
2023-05-21T18:12:35.641Z,5.78
2023-05-21T18:15:04.682Z,5.13
2023-05-21T18:17:30.986Z,5.22
2023-05-21T18:19:59.773Z,6.32
2023-05-21T18:22:26.031Z,6.30
2023-05-21T18:24:52.365Z,6.38
2023-05-21T18:27:18.661Z,5.78
2023-05-21T18:29:55.980Z,5.18
2023-05-21T18:32:22.552Z,6.53
2023-05-21T18:34:49.201Z,5.90
2023-05-21T18:37:15.482Z,6.32
2023-05-21T18:39:46.809Z,5.45
2023-05-21T18:42:14.443Z,6.15
2023-05-21T18:44:40.932Z,6.50
2023-05-21T18:47:10.041Z,5.47
2023-05-21T18:49:36.635Z,6.32
2023-05-21T18:52:03.629Z,5.10
2023-05-21T18:54:29.914Z,6.10
2023-05-21T18:56:56.210Z,6.28
2023-05-21T18:59:29.867Z,6.75
2023-05-21T19:01:56.208Z,6.78
2023-05-21T19:04:23.948Z,6.47
2023-05-21T19:06:53.265Z,6.70
2023-05-21T19:09:19.796Z,6.60
2023-05-21T19:11:46.102Z,6.75
2023-05-21T19:14:12.421Z,6.78
2023-05-21T19:16:40.608Z,7.25
2023-05-21T19:19:08.333Z,7.68
2023-05-21T19:21:34.822Z,6.60
2023-05-21T19:24:05.884Z,7.10
2023-05-21T19:26:33.685Z,7.40
2023-05-21T19:29:02.020Z,7.13
2023-05-21T19:31:31.212Z,6.85
2023-05-21T19:33:57.507Z,7.57
2023-05-21T19:36:24.224Z,6.63
2023-05-21T19:38:50.981Z,7.95
2023-05-21T19:41:20.360Z,7.72
2023-05-21T19:43:46.659Z,8.68
2023-05-21T19:46:13.377Z,7.35
2023-05-21T19:48:43.825Z,8.35
2023-05-21T19:51:10.085Z,7.50
2023-05-21T19:53:38.468Z,7.13
2023-05-21T19:56:05.880Z,7.63
2023-05-21T19:58:36.956Z,8.10
2023-05-21T20:01:08.198Z,8.45
2023-05-21T20:03:36.110Z,7.25
2023-05-21T20:06:14.481Z,9.70
2023-05-21T20:08:40.771Z,8.43
2023-05-21T20:11:08.189Z,7.82
2023-05-21T20:13:34.467Z,7.60
2023-05-21T20:16:00.747Z,7.85
2023-05-21T20:18:29.088Z,7.28
2023-05-21T20:20:55.361Z,7.22
2023-05-21T20:23:26.713Z,7.22
2023-05-21T20:25:53.048Z,7.82
2023-05-21T20:28:22.849Z,6.90
2023-05-21T20:30:55.854Z,7.15
2023-05-21T20:33:29.208Z,8.68
2023-05-21T20:35:55.558Z,7.18
2023-05-21T20:38:23.948Z,8.10
2023-05-21T20:40:50.222Z,7.72
2023-05-21T20:43:16.703Z,7.75
2023-05-21T20:45:54.489Z,8.15
2023-05-21T20:48:22.870Z,7.68
2023-05-21T20:50:52.106Z,9.05
2023-05-21T20:53:18.371Z,7.28
2023-05-21T20:55:46.903Z,7.15
2023-05-21T20:58:13.243Z,8.38
2023-05-21T21:00:39.723Z,8.25
2023-05-21T21:03:06.121Z,7.43
2023-05-21T21:05:34.950Z,7.25
2023-05-21T21:08:01.354Z,7.53
2023-05-21T21:10:31.087Z,7.43
2023-05-21T21:13:01.934Z,8.32
2023-05-21T21:15:28.206Z,7.78
2023-05-21T21:17:57.721Z,7.63
2023-05-21T21:20:27.069Z,7.93
2023-05-21T21:22:53.604Z,8.20
2023-05-21T21:25:21.950Z,7.80
2023-05-21T21:27:55.700Z,7.90
2023-05-21T21:30:22.064Z,8.68
2023-05-21T21:32:48.323Z,8.65
2023-05-21T21:35:19.482Z,9.27
2023-05-21T21:37:45.743Z,8.73
2023-05-21T21:40:12.346Z,9.07
2023-05-21T21:42:46.134Z,8.38
2023-05-21T21:45:12.418Z,8.25
2023-05-21T21:47:40.303Z,9.65
2023-05-21T21:50:10.025Z,8.80
2023-05-21T21:52:41.841Z,8.25
2023-05-21T21:55:08.973Z,9.20
2023-05-21T21:57:35.514Z,9.10
2023-05-21T22:00:02.136Z,9.05
2023-05-21T22:02:28.458Z,8.52
2023-05-21T22:04:54.791Z,8.90
2023-05-21T22:07:22.328Z,10.35
2023-05-21T22:09:53.131Z,9.43
2023-05-21T22:12:20.557Z,8.52
2023-05-21T22:14:49.684Z,8.98
2023-05-21T22:17:15.900Z,9.20
2023-05-21T22:19:42.185Z,9.07
2023-05-21T22:22:11.136Z,9.90
2023-05-21T22:24:39.810Z,9.48
2023-05-21T22:27:08.313Z,9.45
2023-05-21T22:29:34.601Z,8.82
2023-05-21T22:32:05.193Z,9.30
2023-05-21T22:34:32.237Z,10.18
2023-05-21T22:36:58.488Z,10.48
2023-05-21T22:39:24.902Z,10.43
2023-05-21T22:41:51.242Z,8.73
2023-05-21T22:44:17.634Z,9.90
2023-05-21T22:46:47.025Z,10.15
2023-05-21T22:49:20.051Z,11.38
2023-05-21T22:51:48.610Z,11.13
2023-05-21T22:54:19.092Z,11.85
2023-05-21T22:56:45.337Z,9.70
2023-05-21T22:59:11.640Z,9.38
2023-05-21T23:01:38.155Z,9.73
2023-05-21T23:04:04.590Z,10.65
2023-05-21T23:06:30.820Z,9.18
2023-05-21T23:08:57.177Z,11.27
2023-05-21T23:11:23.457Z,11.07
2023-05-21T23:13:49.695Z,10.32
2023-05-21T23:16:16.014Z,13.07
2023-05-21T23:18:42.377Z,14.18
2023-05-21T23:21:08.658Z,12.23
2023-05-21T23:23:39.757Z,12.30
2023-05-21T23:26:06.051Z,15.23
2023-05-21T23:28:36.497Z,11.65
2023-05-21T23:31:07.210Z,11.18
2023-05-21T23:33:35.735Z,12.75
2023-05-21T23:36:01.993Z,10.60
2023-05-21T23:38:38.436Z,10.90
2023-05-21T23:41:06.853Z,10.73
2023-05-21T23:43:33.209Z,11.23
2023-05-21T23:46:01.726Z,10.35
2023-05-21T23:48:30.581Z,12.52
2023-05-21T23:50:56.823Z,14.05
2023-05-21T23:53:23.161Z,12.63
2023-05-21T23:55:52.374Z,14.15
2023-05-21T23:58:18.822Z,14.48
